sensor_id;sensor_type;location;lat;lon;timestamp;P1;durP1;ratioP1;P2;durP2;ratioP2
38621;SDS011;24380;51.132;5.360;2023-04-25T00:01:22;17.35;;;4.78;;
38621;SDS011;24380;51.132;5.360;2023-04-25T00:03:49;11.70;;;4.83;;
38621;SDS011;24380;51.132;5.360;2023-04-25T00:06:17;14.80;;;5.00;;
38621;SDS011;24380;51.132;5.360;2023-04-25T00:08:44;14.23;;;5.08;;
38621;SDS011;24380;51.132;5.360;2023-04-25T00:11:12;18.27;;;5.03;;
38621;SDS011;24380;51.132;5.360;2023-04-25T00:13:40;20.17;;;5.25;;
38621;SDS011;24380;51.132;5.360;2023-04-25T00:16:07;22.42;;;5.72;;
38621;SDS011;24380;51.132;5.360;2023-04-25T00:18:35;12.65;;;4.90;;
38621;SDS011;24380;51.132;5.360;2023-04-25T00:21:02;13.15;;;5.12;;
38621;SDS011;24380;51.132;5.360;2023-04-25T00:23:31;17.62;;;5.30;;
38621;SDS011;24380;51.132;5.360;2023-04-25T00:26:01;15.70;;;4.92;;
38621;SDS011;24380;51.132;5.360;2023-04-25T00:28:29;22.65;;;5.42;;
38621;SDS011;24380;51.132;5.360;2023-04-25T00:30:56;17.82;;;5.35;;
38621;SDS011;24380;51.132;5.360;2023-04-25T00:33:25;20.55;;;5.70;;
38621;SDS011;24380;51.132;5.360;2023-04-25T00:35:52;17.50;;;5.20;;
38621;SDS011;24380;51.132;5.360;2023-04-25T00:38:20;19.57;;;5.25;;
38621;SDS011;24380;51.132;5.360;2023-04-25T00:40:48;17.82;;;5.47;;
38621;SDS011;24380;51.132;5.360;2023-04-25T00:43:15;17.75;;;5.17;;
38621;SDS011;24380;51.132;5.360;2023-04-25T00:45:43;20.37;;;5.67;;
38621;SDS011;24380;51.132;5.360;2023-04-25T00:48:13;16.00;;;5.12;;
38621;SDS011;24380;51.132;5.360;2023-04-25T00:50:41;19.15;;;5.67;;
38621;SDS011;24380;51.132;5.360;2023-04-25T00:53:09;13.55;;;5.90;;
38621;SDS011;24380;51.132;5.360;2023-04-25T00:55:36;16.73;;;5.83;;
38621;SDS011;24380;51.132;5.360;2023-04-25T00:58:04;20.70;;;5.20;;
38621;SDS011;24380;51.132;5.360;2023-04-25T01:00:31;18.62;;;5.50;;
38621;SDS011;24380;51.132;5.360;2023-04-25T01:02:59;14.45;;;5.33;;
38621;SDS011;24380;51.132;5.360;2023-04-25T01:05:29;18.70;;;5.60;;
38621;SDS011;24380;51.132;5.360;2023-04-25T01:07:56;15.38;;;5.53;;
38621;SDS011;24380;51.132;5.360;2023-04-25T01:10:25;18.10;;;5.42;;
38621;SDS011;24380;51.132;5.360;2023-04-25T01:12:52;17.23;;;5.70;;
38621;SDS011;24380;51.132;5.360;2023-04-25T01:15:20;11.97;;;5.75;;
38621;SDS011;24380;51.132;5.360;2023-04-25T01:17:48;13.53;;;5.42;;
38621;SDS011;24380;51.132;5.360;2023-04-25T01:20:16;15.32;;;6.12;;
38621;SDS011;24380;51.132;5.360;2023-04-25T01:22:44;20.02;;;5.90;;
38621;SDS011;24380;51.132;5.360;2023-04-25T01:25:12;14.43;;;6.08;;
38621;SDS011;24380;51.132;5.360;2023-04-25T01:27:40;23.73;;;5.97;;
38621;SDS011;24380;51.132;5.360;2023-04-25T01:30:08;17.57;;;5.90;;
38621;SDS011;24380;51.132;5.360;2023-04-25T01:32:35;14.83;;;5.95;;
38621;SDS011;24380;51.132;5.360;2023-04-25T01:35:07;15.85;;;5.70;;
38621;SDS011;24380;51.132;5.360;2023-04-25T01:37:40;20.15;;;5.97;;
38621;SDS011;24380;51.132;5.360;2023-04-25T01:40:09;15.13;;;5.60;;
38621;SDS011;24380;51.132;5.360;2023-04-25T01:42:39;15.28;;;5.45;;
38621;SDS011;24380;51.132;5.360;2023-04-25T01:45:08;19.33;;;6.03;;
38621;SDS011;24380;51.132;5.360;2023-04-25T01:47:37;13.80;;;6.10;;
38621;SDS011;24380;51.132;5.360;2023-04-25T01:50:09;20.32;;;5.72;;
38621;SDS011;24380;51.132;5.360;2023-04-25T01:52:37;16.90;;;5.65;;
38621;SDS011;24380;51.132;5.360;2023-04-25T01:55:05;10.10;;;4.83;;
38621;SDS011;24380;51.132;5.360;2023-04-25T01:57:33;17.75;;;5.10;;
38621;SDS011;24380;51.132;5.360;2023-04-25T02:00:02;13.13;;;5.20;;
38621;SDS011;24380;51.132;5.360;2023-04-25T02:02:32;14.73;;;5.40;;
38621;SDS011;24380;51.132;5.360;2023-04-25T02:05:00;19.07;;;6.22;;
38621;SDS011;24380;51.132;5.360;2023-04-25T02:07:27;12.58;;;5.45;;
38621;SDS011;24380;51.132;5.360;2023-04-25T02:09:55;12.88;;;5.33;;
38621;SDS011;24380;51.132;5.360;2023-04-25T02:12:22;16.00;;;5.92;;
38621;SDS011;24380;51.132;5.360;2023-04-25T02:14:51;15.95;;;5.30;;
38621;SDS011;24380;51.132;5.360;2023-04-25T02:17:19;15.28;;;5.70;;
38621;SDS011;24380;51.132;5.360;2023-04-25T02:19:47;11.08;;;5.17;;
38621;SDS011;24380;51.132;5.360;2023-04-25T02:22:16;20.25;;;5.40;;
38621;SDS011;24380;51.132;5.360;2023-04-25T02:24:43;18.90;;;6.10;;
38621;SDS011;24380;51.132;5.360;2023-04-25T02:27:10;16.42;;;6.25;;
38621;SDS011;24380;51.132;5.360;2023-04-25T02:29:38;19.92;;;6.05;;
38621;SDS011;24380;51.132;5.360;2023-04-25T02:32:06;16.15;;;5.92;;
38621;SDS011;24380;51.132;5.360;2023-04-25T02:34:33;17.87;;;6.50;;
38621;SDS011;24380;51.132;5.360;2023-04-25T02:37:01;16.97;;;6.53;;
38621;SDS011;24380;51.132;5.360;2023-04-25T02:39:28;20.45;;;6.05;;
38621;SDS011;24380;51.132;5.360;2023-04-25T02:41:56;17.62;;;6.12;;
38621;SDS011;24380;51.132;5.360;2023-04-25T02:44:23;16.42;;;5.83;;
38621;SDS011;24380;51.132;5.360;2023-04-25T02:46:51;19.33;;;5.97;;
38621;SDS011;24380;51.132;5.360;2023-04-25T02:49:18;15.95;;;5.42;;
38621;SDS011;24380;51.132;5.360;2023-04-25T02:51:46;15.85;;;5.92;;
38621;SDS011;24380;51.132;5.360;2023-04-25T02:54:13;15.50;;;6.85;;
38621;SDS011;24380;51.132;5.360;2023-04-25T02:56:41;16.52;;;6.20;;
38621;SDS011;24380;51.132;5.360;2023-04-25T02:59:08;14.50;;;6.53;;
38621;SDS011;24380;51.132;5.360;2023-04-25T03:01:36;17.32;;;6.05;;
38621;SDS011;24380;51.132;5.360;2023-04-25T03:04:03;19.05;;;7.05;;
38621;SDS011;24380;51.132;5.360;2023-04-25T03:06:31;14.60;;;6.10;;
38621;SDS011;24380;51.132;5.360;2023-04-25T03:08:58;20.77;;;6.15;;
38621;SDS011;24380;51.132;5.360;2023-04-25T03:11:26;15.28;;;6.05;;
38621;SDS011;24380;51.132;5.360;2023-04-25T03:13:53;18.67;;;7.03;;
38621;SDS011;24380;51.132;5.360;2023-04-25T03:16:21;18.07;;;6.70;;
38621;SDS011;24380;51.132;5.360;2023-04-25T03:18:49;18.85;;;6.90;;
38621;SDS011;24380;51.132;5.360;2023-04-25T03:21:16;17.55;;;6.58;;
38621;SDS011;24380;51.132;5.360;2023-04-25T03:23:44;15.88;;;6.72;;
38621;SDS011;24380;51.132;5.360;2023-04-25T03:26:12;19.15;;;6.80;;
38621;SDS011;24380;51.132;5.360;2023-04-25T03:28:40;21.70;;;7.17;;
38621;SDS011;24380;51.132;5.360;2023-04-25T03:31:07;15.08;;;6.72;;
38621;SDS011;24380;51.132;5.360;2023-04-25T03:33:35;16.90;;;6.17;;
38621;SDS011;24380;51.132;5.360;2023-04-25T03:36:02;19.48;;;7.05;;
38621;SDS011;24380;51.132;5.360;2023-04-25T03:38:31;20.65;;;6.60;;
38621;SDS011;24380;51.132;5.360;2023-04-25T03:40:58;19.57;;;7.03;;
38621;SDS011;24380;51.132;5.360;2023-04-25T03:43:27;20.05;;;6.85;;
38621;SDS011;24380;51.132;5.360;2023-04-25T03:45:54;20.32;;;6.10;;
38621;SDS011;24380;51.132;5.360;2023-04-25T03:48:22;19.30;;;6.92;;
38621;SDS011;24380;51.132;5.360;2023-04-25T03:50:51;19.98;;;7.00;;
38621;SDS011;24380;51.132;5.360;2023-04-25T03:53:20;19.50;;;6.62;;
38621;SDS011;24380;51.132;5.360;2023-04-25T03:55:47;21.42;;;6.67;;
38621;SDS011;24380;51.132;5.360;2023-04-25T03:58:15;22.55;;;7.40;;
38621;SDS011;24380;51.132;5.360;2023-04-25T04:00:42;18.98;;;7.30;;
38621;SDS011;24380;51.132;5.360;2023-04-25T04:03:10;20.85;;;7.12;;
38621;SDS011;24380;51.132;5.360;2023-04-25T04:05:38;18.73;;;6.85;;
38621;SDS011;24380;51.132;5.360;2023-04-25T04:08:06;24.18;;;8.33;;
38621;SDS011;24380;51.132;5.360;2023-04-25T04:10:33;22.13;;;7.28;;
38621;SDS011;24380;51.132;5.360;2023-04-25T04:13:01;21.05;;;6.90;;
38621;SDS011;24380;51.132;5.360;2023-04-25T04:15:29;23.15;;;7.53;;
38621;SDS011;24380;51.132;5.360;2023-04-25T04:17:58;21.60;;;7.77;;
38621;SDS011;24380;51.132;5.360;2023-04-25T04:20:28;16.65;;;6.83;;
38621;SDS011;24380;51.132;5.360;2023-04-25T04:22:56;19.48;;;7.55;;
38621;SDS011;24380;51.132;5.360;2023-04-25T04:25:24;20.05;;;7.65;;
38621;SDS011;24380;51.132;5.360;2023-04-25T04:27:51;21.95;;;7.28;;
38621;SDS011;24380;51.132;5.360;2023-04-25T04:30:22;19.10;;;7.25;;
38621;SDS011;24380;51.132;5.360;2023-04-25T04:32:51;22.40;;;7.40;;
38621;SDS011;24380;51.132;5.360;2023-04-25T04:35:19;18.73;;;6.92;;
38621;SDS011;24380;51.132;5.360;2023-04-25T04:37:46;21.42;;;7.70;;
38621;SDS011;24380;51.132;5.360;2023-04-25T04:40:14;18.73;;;7.58;;
38621;SDS011;24380;51.132;5.360;2023-04-25T04:42:43;21.15;;;7.22;;
38621;SDS011;24380;51.132;5.360;2023-04-25T04:45:17;24.27;;;7.55;;
38621;SDS011;24380;51.132;5.360;2023-04-25T04:47:44;18.25;;;8.05;;
38621;SDS011;24380;51.132;5.360;2023-04-25T04:50:12;30.75;;;14.18;;
38621;SDS011;24380;51.132;5.360;2023-04-25T04:52:40;116.03;;;54.42;;
38621;SDS011;24380;51.132;5.360;2023-04-25T04:55:08;86.02;;;49.98;;
38621;SDS011;24380;51.132;5.360;2023-04-25T04:57:36;38.13;;;22.50;;
38621;SDS011;24380;51.132;5.360;2023-04-25T05:00:04;34.85;;;20.57;;
38621;SDS011;24380;51.132;5.360;2023-04-25T05:02:34;34.10;;;16.65;;
38621;SDS011;24380;51.132;5.360;2023-04-25T05:05:01;19.70;;;8.43;;
38621;SDS011;24380;51.132;5.360;2023-04-25T05:07:29;16.70;;;7.83;;
38621;SDS011;24380;51.132;5.360;2023-04-25T05:09:57;20.15;;;9.95;;
38621;SDS011;24380;51.132;5.360;2023-04-25T05:12:24;24.50;;;9.93;;
38621;SDS011;24380;51.132;5.360;2023-04-25T05:14:52;15.93;;;6.67;;
38621;SDS011;24380;51.132;5.360;2023-04-25T05:17:20;20.17;;;7.78;;
38621;SDS011;24380;51.132;5.360;2023-04-25T05:19:47;19.77;;;7.60;;
38621;SDS011;24380;51.132;5.360;2023-04-25T05:22:15;17.12;;;7.10;;
38621;SDS011;24380;51.132;5.360;2023-04-25T05:24:42;19.95;;;7.90;;
38621;SDS011;24380;51.132;5.360;2023-04-25T05:27:10;21.30;;;8.65;;
38621;SDS011;24380;51.132;5.360;2023-04-25T05:29:37;20.23;;;8.05;;
38621;SDS011;24380;51.132;5.360;2023-04-25T05:32:05;31.35;;;15.90;;
38621;SDS011;24380;51.132;5.360;2023-04-25T05:34:33;26.07;;;11.70;;
38621;SDS011;24380;51.132;5.360;2023-04-25T05:37:00;30.80;;;10.30;;
38621;SDS011;24380;51.132;5.360;2023-04-25T05:39:28;24.95;;;11.20;;
38621;SDS011;24380;51.132;5.360;2023-04-25T05:41:56;20.32;;;10.60;;
38621;SDS011;24380;51.132;5.360;2023-04-25T05:44:23;19.10;;;6.92;;
38621;SDS011;24380;51.132;5.360;2023-04-25T05:46:52;17.20;;;7.75;;
38621;SDS011;24380;51.132;5.360;2023-04-25T05:49:20;22.85;;;6.45;;
38621;SDS011;24380;51.132;5.360;2023-04-25T05:51:47;19.35;;;6.78;;
38621;SDS011;24380;51.132;5.360;2023-04-25T05:54:15;20.43;;;7.05;;
38621;SDS011;24380;51.132;5.360;2023-04-25T05:56:43;14.15;;;6.67;;
38621;SDS011;24380;51.132;5.360;2023-04-25T05:59:10;18.55;;;7.37;;
38621;SDS011;24380;51.132;5.360;2023-04-25T06:01:38;20.65;;;8.10;;
38621;SDS011;24380;51.132;5.360;2023-04-25T06:04:06;18.35;;;6.83;;
38621;SDS011;24380;51.132;5.360;2023-04-25T06:06:33;14.47;;;6.97;;
38621;SDS011;24380;51.132;5.360;2023-04-25T06:09:01;19.82;;;6.50;;
38621;SDS011;24380;51.132;5.360;2023-04-25T06:11:28;21.12;;;7.92;;
38621;SDS011;24380;51.132;5.360;2023-04-25T06:13:56;16.57;;;8.15;;
38621;SDS011;24380;51.132;5.360;2023-04-25T06:16:23;20.75;;;7.28;;
38621;SDS011;24380;51.132;5.360;2023-04-25T06:18:51;20.35;;;8.38;;
38621;SDS011;24380;51.132;5.360;2023-04-25T06:21:19;21.85;;;7.95;;
38621;SDS011;24380;51.132;5.360;2023-04-25T06:23:46;18.45;;;7.50;;
38621;SDS011;24380;51.132;5.360;2023-04-25T06:26:14;22.75;;;8.20;;
38621;SDS011;24380;51.132;5.360;2023-04-25T06:28:41;17.82;;;8.00;;
38621;SDS011;24380;51.132;5.360;2023-04-25T06:31:09;25.23;;;8.00;;
38621;SDS011;24380;51.132;5.360;2023-04-25T06:33:36;20.20;;;7.92;;
38621;SDS011;24380;51.132;5.360;2023-04-25T06:36:04;19.87;;;7.62;;
38621;SDS011;24380;51.132;5.360;2023-04-25T06:38:32;23.83;;;7.08;;
38621;SDS011;24380;51.132;5.360;2023-04-25T06:41:00;21.57;;;7.47;;
38621;SDS011;24380;51.132;5.360;2023-04-25T06:43:28;21.55;;;7.60;;
38621;SDS011;24380;51.132;5.360;2023-04-25T06:45:57;25.40;;;8.78;;
38621;SDS011;24380;51.132;5.360;2023-04-25T06:48:26;18.98;;;7.75;;
38621;SDS011;24380;51.132;5.360;2023-04-25T06:50:54;19.65;;;7.58;;
38621;SDS011;24380;51.132;5.360;2023-04-25T06:53:22;21.42;;;7.53;;
38621;SDS011;24380;51.132;5.360;2023-04-25T06:55:49;23.18;;;7.58;;
38621;SDS011;24380;51.132;5.360;2023-04-25T06:58:17;15.98;;;6.87;;
38621;SDS011;24380;51.132;5.360;2023-04-25T07:00:45;18.75;;;6.58;;
38621;SDS011;24380;51.132;5.360;2023-04-25T07:03:12;14.30;;;5.92;;
38621;SDS011;24380;51.132;5.360;2023-04-25T07:05:40;14.55;;;6.15;;
38621;SDS011;24380;51.132;5.360;2023-04-25T07:08:08;19.95;;;5.75;;
38621;SDS011;24380;51.132;5.360;2023-04-25T07:10:35;16.60;;;5.90;;
38621;SDS011;24380;51.132;5.360;2023-04-25T07:13:03;15.10;;;5.22;;
38621;SDS011;24380;51.132;5.360;2023-04-25T07:15:30;18.32;;;5.75;;
38621;SDS011;24380;51.132;5.360;2023-04-25T07:17:58;16.02;;;5.72;;
38621;SDS011;24380;51.132;5.360;2023-04-25T07:20:25;11.97;;;4.30;;
38621;SDS011;24380;51.132;5.360;2023-04-25T07:22:53;10.38;;;4.40;;
38621;SDS011;24380;51.132;5.360;2023-04-25T07:25:21;12.55;;;3.85;;
38621;SDS011;24380;51.132;5.360;2023-04-25T07:27:48;12.88;;;3.42;;
38621;SDS011;24380;51.132;5.360;2023-04-25T07:30:16;11.20;;;3.50;;
38621;SDS011;24380;51.132;5.360;2023-04-25T07:32:43;13.00;;;3.40;;
38621;SDS011;24380;51.132;5.360;2023-04-25T07:35:11;12.73;;;3.30;;
38621;SDS011;24380;51.132;5.360;2023-04-25T07:37:39;13.80;;;3.77;;
38621;SDS011;24380;51.132;5.360;2023-04-25T07:40:06;12.55;;;3.40;;
38621;SDS011;24380;51.132;5.360;2023-04-25T07:42:35;20.30;;;4.47;;
38621;SDS011;24380;51.132;5.360;2023-04-25T07:45:02;12.45;;;2.83;;
38621;SDS011;24380;51.132;5.360;2023-04-25T07:47:30;11.57;;;3.12;;
38621;SDS011;24380;51.132;5.360;2023-04-25T07:49:58;15.35;;;3.17;;
38621;SDS011;24380;51.132;5.360;2023-04-25T07:52:26;12.13;;;3.30;;
38621;SDS011;24380;51.132;5.360;2023-04-25T07:54:53;10.68;;;3.90;;
38621;SDS011;24380;51.132;5.360;2023-04-25T07:57:21;14.13;;;3.35;;
38621;SDS011;24380;51.132;5.360;2023-04-25T07:59:50;10.48;;;3.05;;
38621;SDS011;24380;51.132;5.360;2023-04-25T08:02:18;9.45;;;3.40;;
38621;SDS011;24380;51.132;5.360;2023-04-25T08:04:45;9.70;;;2.98;;
38621;SDS011;24380;51.132;5.360;2023-04-25T08:07:14;15.28;;;3.90;;
38621;SDS011;24380;51.132;5.360;2023-04-25T08:09:42;8.20;;;2.70;;
38621;SDS011;24380;51.132;5.360;2023-04-25T08:12:09;12.95;;;2.95;;
38621;SDS011;24380;51.132;5.360;2023-04-25T08:14:37;7.35;;;2.42;;
38621;SDS011;24380;51.132;5.360;2023-04-25T08:17:05;13.55;;;2.77;;
38621;SDS011;24380;51.132;5.360;2023-04-25T08:19:33;9.63;;;2.95;;
38621;SDS011;24380;51.132;5.360;2023-04-25T08:22:01;6.87;;;1.90;;
38621;SDS011;24380;51.132;5.360;2023-04-25T08:24:28;8.15;;;1.60;;
38621;SDS011;24380;51.132;5.360;2023-04-25T08:26:56;7.50;;;1.80;;
38621;SDS011;24380;51.132;5.360;2023-04-25T08:29:24;6.92;;;1.95;;
38621;SDS011;24380;51.132;5.360;2023-04-25T08:31:52;9.48;;;2.02;;
38621;SDS011;24380;51.132;5.360;2023-04-25T08:34:19;10.70;;;1.90;;
38621;SDS011;24380;51.132;5.360;2023-04-25T08:36:47;8.65;;;1.50;;
38621;SDS011;24380;51.132;5.360;2023-04-25T08:39:14;10.18;;;2.20;;
38621;SDS011;24380;51.132;5.360;2023-04-25T08:41:42;5.20;;;1.67;;
38621;SDS011;24380;51.132;5.360;2023-04-25T08:44:10;10.70;;;2.50;;
38621;SDS011;24380;51.132;5.360;2023-04-25T08:46:38;7.22;;;1.75;;
38621;SDS011;24380;51.132;5.360;2023-04-25T08:49:08;8.08;;;2.37;;
38621;SDS011;24380;51.132;5.360;2023-04-25T08:51:36;7.83;;;2.25;;
38621;SDS011;24380;51.132;5.360;2023-04-25T08:54:09;6.47;;;1.80;;
38621;SDS011;24380;51.132;5.360;2023-04-25T08:56:43;9.45;;;1.87;;
38621;SDS011;24380;51.132;5.360;2023-04-25T08:59:11;8.45;;;1.90;;
38621;SDS011;24380;51.132;5.360;2023-04-25T09:01:39;6.67;;;2.20;;
38621;SDS011;24380;51.132;5.360;2023-04-25T09:04:07;8.58;;;1.67;;
38621;SDS011;24380;51.132;5.360;2023-04-25T09:06:34;6.97;;;2.20;;
38621;SDS011;24380;51.132;5.360;2023-04-25T09:09:03;10.00;;;1.98;;
38621;SDS011;24380;51.132;5.360;2023-04-25T09:11:32;7.20;;;2.10;;
38621;SDS011;24380;51.132;5.360;2023-04-25T09:14:20;6.12;;;2.05;;
38621;SDS011;24380;51.132;5.360;2023-04-25T09:16:57;8.00;;;2.30;;
38621;SDS011;24380;51.132;5.360;2023-04-25T09:22:01;6.33;;;2.00;;
38621;SDS011;24380;51.132;5.360;2023-04-25T09:27:05;6.58;;;1.82;;
38621;SDS011;24380;51.132;5.360;2023-04-25T09:29:38;8.33;;;1.90;;
38621;SDS011;24380;51.132;5.360;2023-04-25T09:32:20;10.20;;;2.00;;
38621;SDS011;24380;51.132;5.360;2023-04-25T09:34:49;9.63;;;2.15;;
38621;SDS011;24380;51.132;5.360;2023-04-25T09:39:49;6.25;;;1.98;;
38621;SDS011;24380;51.132;5.360;2023-04-25T09:42:25;6.90;;;1.50;;
38621;SDS011;24380;51.132;5.360;2023-04-25T09:44:54;7.15;;;1.95;;
38621;SDS011;24380;51.132;5.360;2023-04-25T09:47:23;7.08;;;1.80;;
38621;SDS011;24380;51.132;5.360;2023-04-25T09:49:52;4.65;;;1.60;;
38621;SDS011;24380;51.132;5.360;2023-04-25T09:52:21;8.13;;;2.20;;
38621;SDS011;24380;51.132;5.360;2023-04-25T09:54:50;9.58;;;1.72;;
38621;SDS011;24380;51.132;5.360;2023-04-25T09:57:23;6.33;;;1.62;;
38621;SDS011;24380;51.132;5.360;2023-04-25T10:02:17;4.28;;;1.25;;
38621;SDS011;24380;51.132;5.360;2023-04-25T10:04:50;9.63;;;1.50;;
38621;SDS011;24380;51.132;5.360;2023-04-25T10:07:20;9.98;;;1.98;;
38621;SDS011;24380;51.132;5.360;2023-04-25T10:09:54;9.35;;;2.40;;
38621;SDS011;24380;51.132;5.360;2023-04-25T10:12:29;11.38;;;2.50;;
38621;SDS011;24380;51.132;5.360;2023-04-25T10:14:57;10.63;;;2.98;;
38621;SDS011;24380;51.132;5.360;2023-04-25T10:17:26;9.25;;;3.60;;
38621;SDS011;24380;51.132;5.360;2023-04-25T10:19:54;10.38;;;2.42;;
38621;SDS011;24380;51.132;5.360;2023-04-25T10:24:58;8.13;;;2.65;;
38621;SDS011;24380;51.132;5.360;2023-04-25T10:27:28;8.53;;;3.25;;
38621;SDS011;24380;51.132;5.360;2023-04-25T10:30:03;8.13;;;1.70;;
38621;SDS011;24380;51.132;5.360;2023-04-25T10:32:35;10.65;;;2.17;;
38621;SDS011;24380;51.132;5.360;2023-04-25T10:40:32;7.87;;;3.30;;
38621;SDS011;24380;51.132;5.360;2023-04-25T10:43:47;7.53;;;2.20;;
38621;SDS011;24380;51.132;5.360;2023-04-25T10:45:52;12.18;;;2.05;;
38621;SDS011;24380;51.132;5.360;2023-04-25T10:48:29;6.15;;;1.62;;
38621;SDS011;24380;51.132;5.360;2023-04-25T10:51:10;7.35;;;1.85;;
38621;SDS011;24380;51.132;5.360;2023-04-25T10:53:39;8.88;;;2.37;;
38621;SDS011;24380;51.132;5.360;2023-04-25T10:56:11;5.33;;;1.70;;
38621;SDS011;24380;51.132;5.360;2023-04-25T10:58:47;4.20;;;1.47;;
38621;SDS011;24380;51.132;5.360;2023-04-25T11:01:19;3.60;;;1.67;;
38621;SDS011;24380;51.132;5.360;2023-04-25T11:03:48;8.05;;;2.60;;
38621;SDS011;24380;51.132;5.360;2023-04-25T11:06:23;4.87;;;1.72;;
38621;SDS011;24380;51.132;5.360;2023-04-25T11:08:52;5.60;;;1.50;;
38621;SDS011;24380;51.132;5.360;2023-04-25T11:11:20;4.53;;;1.47;;
38621;SDS011;24380;51.132;5.360;2023-04-25T11:13:51;5.75;;;1.92;;
38621;SDS011;24380;51.132;5.360;2023-04-25T11:16:18;6.87;;;2.05;;
38621;SDS011;24380;51.132;5.360;2023-04-25T11:18:46;4.08;;;1.45;;
38621;SDS011;24380;51.132;5.360;2023-04-25T11:21:13;5.87;;;1.75;;
38621;SDS011;24380;51.132;5.360;2023-04-25T11:23:42;9.13;;;1.75;;
38621;SDS011;24380;51.132;5.360;2023-04-25T11:26:13;5.28;;;1.90;;
38621;SDS011;24380;51.132;5.360;2023-04-25T11:28:41;7.42;;;1.70;;
38621;SDS011;24380;51.132;5.360;2023-04-25T11:31:12;7.87;;;2.10;;
38621;SDS011;24380;51.132;5.360;2023-04-25T11:33:40;8.35;;;2.90;;
38621;SDS011;24380;51.132;5.360;2023-04-25T11:36:08;7.33;;;2.75;;
38621;SDS011;24380;51.132;5.360;2023-04-25T11:38:37;6.08;;;1.70;;
38621;SDS011;24380;51.132;5.360;2023-04-25T11:41:04;6.62;;;1.57;;
38621;SDS011;24380;51.132;5.360;2023-04-25T11:43:32;7.87;;;3.12;;
38621;SDS011;24380;51.132;5.360;2023-04-25T11:45:59;5.87;;;1.42;;
38621;SDS011;24380;51.132;5.360;2023-04-25T11:48:27;3.40;;;1.42;;
38621;SDS011;24380;51.132;5.360;2023-04-25T11:50:57;4.33;;;1.07;;
38621;SDS011;24380;51.132;5.360;2023-04-25T11:53:27;6.58;;;1.75;;
38621;SDS011;24380;51.132;5.360;2023-04-25T11:55:54;5.05;;;1.10;;
38621;SDS011;24380;51.132;5.360;2023-04-25T11:58:22;5.83;;;1.40;;
38621;SDS011;24380;51.132;5.360;2023-04-25T12:00:50;5.65;;;1.50;;
38621;SDS011;24380;51.132;5.360;2023-04-25T12:03:17;3.83;;;1.82;;
38621;SDS011;24380;51.132;5.360;2023-04-25T12:05:46;9.35;;;3.50;;
38621;SDS011;24380;51.132;5.360;2023-04-25T12:08:13;8.55;;;1.75;;
38621;SDS011;24380;51.132;5.360;2023-04-25T12:10:42;6.95;;;1.72;;
38621;SDS011;24380;51.132;5.360;2023-04-25T12:13:22;3.80;;;1.27;;
38621;SDS011;24380;51.132;5.360;2023-04-25T12:15:50;6.97;;;1.67;;
38621;SDS011;24380;51.132;5.360;2023-04-25T12:18:20;7.97;;;2.70;;
38621;SDS011;24380;51.132;5.360;2023-04-25T12:20:56;6.92;;;1.45;;
38621;SDS011;24380;51.132;5.360;2023-04-25T12:23:25;7.10;;;1.67;;
38621;SDS011;24380;51.132;5.360;2023-04-25T12:25:53;4.90;;;1.37;;
38621;SDS011;24380;51.132;5.360;2023-04-25T12:28:22;6.25;;;1.25;;
38621;SDS011;24380;51.132;5.360;2023-04-25T12:33:21;4.50;;;1.40;;
38621;SDS011;24380;51.132;5.360;2023-04-25T12:35:49;5.45;;;1.67;;
38621;SDS011;24380;51.132;5.360;2023-04-25T12:38:26;3.80;;;1.10;;
38621;SDS011;24380;51.132;5.360;2023-04-25T12:40:59;3.25;;;1.80;;
38621;SDS011;24380;51.132;5.360;2023-04-25T12:43:27;14.60;;;7.55;;
38621;SDS011;24380;51.132;5.360;2023-04-25T12:45:55;43.52;;;19.20;;
38621;SDS011;24380;51.132;5.360;2023-04-25T12:48:23;5.28;;;1.30;;
38621;SDS011;24380;51.132;5.360;2023-04-25T12:50:51;19.90;;;7.60;;
38621;SDS011;24380;51.132;5.360;2023-04-25T12:53:19;5.58;;;2.22;;
38621;SDS011;24380;51.132;5.360;2023-04-25T12:55:48;3.27;;;1.00;;
38621;SDS011;24380;51.132;5.360;2023-04-25T12:58:16;3.70;;;1.37;;
38621;SDS011;24380;51.132;5.360;2023-04-25T13:00:45;4.85;;;1.05;;
38621;SDS011;24380;51.132;5.360;2023-04-25T13:03:14;3.80;;;1.10;;
38621;SDS011;24380;51.132;5.360;2023-04-25T13:05:42;3.90;;;0.88;;
38621;SDS011;24380;51.132;5.360;2023-04-25T13:08:09;2.83;;;1.00;;
38621;SDS011;24380;51.132;5.360;2023-04-25T13:10:37;5.53;;;1.10;;
38621;SDS011;24380;51.132;5.360;2023-04-25T13:13:04;2.83;;;1.10;;
38621;SDS011;24380;51.132;5.360;2023-04-25T13:15:32;5.15;;;1.27;;
38621;SDS011;24380;51.132;5.360;2023-04-25T13:18:00;4.72;;;1.17;;
38621;SDS011;24380;51.132;5.360;2023-04-25T13:20:27;4.70;;;1.25;;
38621;SDS011;24380;51.132;5.360;2023-04-25T13:22:55;4.97;;;1.30;;
38621;SDS011;24380;51.132;5.360;2023-04-25T13:25:22;3.12;;;1.30;;
38621;SDS011;24380;51.132;5.360;2023-04-25T13:27:50;6.20;;;1.98;;
38621;SDS011;24380;51.132;5.360;2023-04-25T13:30:18;5.70;;;1.40;;
38621;SDS011;24380;51.132;5.360;2023-04-25T13:32:45;4.47;;;1.17;;
38621;SDS011;24380;51.132;5.360;2023-04-25T13:35:13;8.25;;;1.20;;
38621;SDS011;24380;51.132;5.360;2023-04-25T13:37:41;5.15;;;1.57;;
38621;SDS011;24380;51.132;5.360;2023-04-25T13:40:09;6.50;;;1.52;;
38621;SDS011;24380;51.132;5.360;2023-04-25T13:42:38;4.20;;;1.35;;
38621;SDS011;24380;51.132;5.360;2023-04-25T13:45:06;4.10;;;1.12;;
38621;SDS011;24380;51.132;5.360;2023-04-25T13:47:34;4.17;;;1.07;;
38621;SDS011;24380;51.132;5.360;2023-04-25T13:50:02;4.03;;;1.55;;
38621;SDS011;24380;51.132;5.360;2023-04-25T13:52:34;4.25;;;1.32;;
38621;SDS011;24380;51.132;5.360;2023-04-25T13:55:01;3.67;;;1.27;;
38621;SDS011;24380;51.132;5.360;2023-04-25T13:57:31;5.47;;;1.20;;
38621;SDS011;24380;51.132;5.360;2023-04-25T13:59:58;7.17;;;2.00;;
38621;SDS011;24380;51.132;5.360;2023-04-25T14:02:28;4.35;;;1.12;;
38621;SDS011;24380;51.132;5.360;2023-04-25T14:04:55;3.85;;;1.22;;
38621;SDS011;24380;51.132;5.360;2023-04-25T14:07:23;3.65;;;1.32;;
38621;SDS011;24380;51.132;5.360;2023-04-25T14:09:51;4.03;;;0.90;;
38621;SDS011;24380;51.132;5.360;2023-04-25T14:12:18;5.53;;;1.20;;
38621;SDS011;24380;51.132;5.360;2023-04-25T14:14:46;4.15;;;1.07;;
38621;SDS011;24380;51.132;5.360;2023-04-25T14:17:13;7.50;;;1.50;;
38621;SDS011;24380;51.132;5.360;2023-04-25T14:19:41;3.72;;;1.07;;
38621;SDS011;24380;51.132;5.360;2023-04-25T14:22:10;3.25;;;1.30;;
38621;SDS011;24380;51.132;5.360;2023-04-25T14:24:37;4.05;;;1.20;;
38621;SDS011;24380;51.132;5.360;2023-04-25T14:27:05;5.08;;;1.35;;
38621;SDS011;24380;51.132;5.360;2023-04-25T14:29:33;8.15;;;1.32;;
38621;SDS011;24380;51.132;5.360;2023-04-25T14:32:00;3.67;;;1.55;;
38621;SDS011;24380;51.132;5.360;2023-04-25T14:34:28;5.65;;;1.57;;
38621;SDS011;24380;51.132;5.360;2023-04-25T14:36:55;3.20;;;1.30;;
38621;SDS011;24380;51.132;5.360;2023-04-25T14:39:23;3.55;;;1.27;;
38621;SDS011;24380;51.132;5.360;2023-04-25T14:41:50;5.10;;;1.35;;
38621;SDS011;24380;51.132;5.360;2023-04-25T14:44:18;5.45;;;1.30;;
38621;SDS011;24380;51.132;5.360;2023-04-25T14:46:46;3.05;;;1.10;;
38621;SDS011;24380;51.132;5.360;2023-04-25T14:49:13;3.33;;;1.20;;
38621;SDS011;24380;51.132;5.360;2023-04-25T14:51:41;6.10;;;1.65;;
38621;SDS011;24380;51.132;5.360;2023-04-25T14:54:08;5.87;;;2.70;;
38621;SDS011;24380;51.132;5.360;2023-04-25T14:56:37;6.97;;;2.60;;
38621;SDS011;24380;51.132;5.360;2023-04-25T14:59:05;3.72;;;1.17;;
38621;SDS011;24380;51.132;5.360;2023-04-25T15:01:33;6.58;;;1.90;;
38621;SDS011;24380;51.132;5.360;2023-04-25T15:04:00;5.20;;;1.45;;
38621;SDS011;24380;51.132;5.360;2023-04-25T15:06:29;3.98;;;1.50;;